Aeroporto :
LOGIN :

Iscrizione | Disclaimer

   EN    FR    IT 

 










Sommario :    VFR   VFR Marginale   IFR   IFR Intensivo   IFR Molto Intensivo
Visibilità : 
Base nubi : 
>= 8 km
>= 3000ft
5 / 8 km
1000 / 3000 ft
1500m / 5 km
500 / 1000 ft
800 / 1500m
200 / 500 ft
< 800m
< 200 ft
Simboli :   Temporali  Nebbia  Neve Forte  Precipitazioni Forti  Vento > 20 kt
SIGMETs :   Varie  Temporali  Ghiacco  Turbolenza  Onda orograficha  Ceneri Vulcaniche







- Altitudine del aeroporto : 465 ft
- Codice IATA : LEJ


EDDP - Leipzig Halle

ULTIMO METAR :
  • 211950Z 07010KT 5000 -DZ OVC007 01/M00 Q1021 TEMPO 4000 -DZ

METARs OBSOLETI :
  • 211920Z 07010KT 7000 OVC008 01/M00 Q1021 NOSIG
  • 211850Z 07010KT 7000 OVC009 01/M00 Q1021 NOSIG
  • 211820Z 07010KT 7000 OVC008 01/M00 Q1021 NOSIG
  • 211750Z 07010KT 7000 OVC008 01/M00 Q1021 NOSIG
  • 211720Z 07011KT 6000 OVC008 01/M00 Q1020 NOSIG

TAF TAF EDDP
Valido dal 21 a 18 ore il 22 a 18 ore UTC


211700Z 2118/2218 07010KT 3500 -DZ BKN007
TEMPO 2118/2210 6000 BKN012
BECMG 2210/2212 6000 BKN012
Nessun NOTAM noto per questo aeroporto.
2 SIGMETs conosciuti per la FIR München (EDMM) :
 
Forte formazione di ghiaccio
EDMM SIGMET 2 VALID 211844/212000 EDZM
EDMM MUNCHEN FIR SEV ICE FCST WI N5037 E01039 - N5024 E01230 - N5002 E01219 - N5006 E01030 - N5014 E01017 - N5037 E01039 1500FT/4500FT STNR NC=
Forte formazione di ghiaccio
EDMM SIGMET 1 VALID 211820/212000 EDZM
EDMM MUNCHEN FIR SEV ICE FCST WI N4842 E01100 - N4744 E01100 - N4745 E00914 - N4842 E00940 - N4842 E01100 SFC/4500FT STNR NC=



MetMap, La meteo Aeronautica in un colpo d'occhio ! - Copyright ORBIFLY Dicembre 2007 - Disclaimer

ORBIFLY MET'MAP TEAM :

Programmazione e sviluppo : Alexandra Zaïnal
Concezione e sviluppo : Baudouin d'Aumeries
Co-Programmazione e sviluppo : Marc-Olivier Méhu
Supporto tecnico e logistico : Manuel Goepfert
Aiuto per la traduzione : Arnaldo La Scala

Contatto : metmap@orbifly.com




FONTI E CREDITI :

   NOAA